createdAt,value
2019-01-25T00:00:36.056Z,17.56
2019-01-25T00:01:44.913Z,17.71
2019-01-25T00:02:53.749Z,17.56
2019-01-25T00:04:03.114Z,17.58
2019-01-25T00:05:12.187Z,17.66
2019-01-25T00:06:21.314Z,17.59
2019-01-25T00:07:30.674Z,17.55
2019-01-25T00:08:39.509Z,17.64
2019-01-25T00:09:48.871Z,17.62
2019-01-25T00:11:03.275Z,17.58
2019-01-25T00:12:12.642Z,17.59
2019-01-25T00:13:21.714Z,17.62
2019-01-25T00:14:30.821Z,17.56
2019-01-25T00:15:39.684Z,17.62
2019-01-25T00:16:48.767Z,17.56
2019-01-25T00:17:57.968Z,17.58
2019-01-25T00:19:07.093Z,17.62
2019-01-25T00:20:16.004Z,17.59
2019-01-25T00:21:24.802Z,17.58
2019-01-25T00:22:33.620Z,17.56
2019-01-25T00:23:42.449Z,17.56
2019-01-25T00:24:51.908Z,17.58
2019-01-25T00:26:01.109Z,17.56
2019-01-25T00:27:09.945Z,17.62
2019-01-25T00:28:18.770Z,17.55
2019-01-25T00:29:27.635Z,17.58
2019-01-25T00:30:36.471Z,17.63
2019-01-25T00:31:45.276Z,17.58
2019-01-25T00:32:54.349Z,17.63
2019-01-25T00:34:03.190Z,17.54
2019-01-25T00:35:12.314Z,17.52
2019-01-25T00:36:21.611Z,17.56
2019-01-25T00:37:30.700Z,17.56
2019-01-25T00:38:39.527Z,17.59
2019-01-25T00:39:48.384Z,17.54
2019-01-25T00:40:57.249Z,17.58
2019-01-25T00:42:06.063Z,17.62
2019-01-25T00:43:14.942Z,17.56
2019-01-25T00:44:24.355Z,17.52
2019-01-25T00:45:33.490Z,17.55
2019-01-25T00:46:42.624Z,17.55
2019-01-25T00:47:51.713Z,17.55
2019-01-25T00:49:00.985Z,17.58
2019-01-25T00:50:09.783Z,17.58
2019-01-25T00:51:19.141Z,17.58
2019-01-25T00:52:27.991Z,17.55
2019-01-25T00:53:36.814Z,17.54
2019-01-25T00:54:45.913Z,17.55
2019-01-25T00:55:54.753Z,17.52
2019-01-25T00:57:03.863Z,17.54
2019-01-25T00:58:13.512Z,17.54
2019-01-25T00:59:22.349Z,17.58
2019-01-25T01:00:31.425Z,17.52
2019-01-25T01:01:40.222Z,17.52
2019-01-25T01:02:49.030Z,17.52
2019-01-25T01:03:57.932Z,17.51
2019-01-25T01:05:06.997Z,17.52
2019-01-25T01:06:15.816Z,17.55
2019-01-25T01:07:25.202Z,17.51
2019-01-25T01:08:34.041Z,17.55
2019-01-25T01:09:43.524Z,17.51
2019-01-25T01:10:52.350Z,17.52
2019-01-25T01:12:01.465Z,17.51
2019-01-25T01:13:10.873Z,17.54
2019-01-25T01:14:19.961Z,17.48
2019-01-25T01:15:29.065Z,17.49
2019-01-25T01:16:38.146Z,17.46
2019-01-25T01:17:46.946Z,17.55
2019-01-25T01:18:55.804Z,17.49
2019-01-25T01:20:04.621Z,17.49
2019-01-25T01:21:13.505Z,17.48
2019-01-25T01:22:22.319Z,17.49
2019-01-25T01:23:31.157Z,17.49
2019-01-25T01:24:40.293Z,17.51
2019-01-25T01:25:49.087Z,17.51
2019-01-25T01:26:57.974Z,17.52
2019-01-25T01:28:07.053Z,17.48
2019-01-25T01:29:16.442Z,17.48
2019-01-25T01:30:25.777Z,17.49
2019-01-25T01:31:34.852Z,17.48
2019-01-25T01:32:44.531Z,17.44
2019-01-25T01:33:53.616Z,17.43
2019-01-25T01:35:02.431Z,17.49
2019-01-25T01:36:11.247Z,17.44
2019-01-25T01:37:20.357Z,17.51
2019-01-25T01:38:29.226Z,17.44
2019-01-25T01:39:38.313Z,17.52
2019-01-25T01:40:47.426Z,17.46
2019-01-25T01:41:56.531Z,17.46
2019-01-25T01:43:05.369Z,17.49
2019-01-25T01:44:14.173Z,17.49
2019-01-25T01:45:23.263Z,17.44
2019-01-25T01:46:32.377Z,17.43
2019-01-25T01:47:41.446Z,17.41
2019-01-25T01:48:50.540Z,17.37
2019-01-25T01:49:59.678Z,17.44
2019-01-25T01:51:08.766Z,17.43
2019-01-25T01:52:17.864Z,17.4
2019-01-25T01:53:27.236Z,17.41
2019-01-25T01:54:36.333Z,17.46
2019-01-25T01:55:45.751Z,17.38
2019-01-25T01:56:55.074Z,17.4
2019-01-25T01:58:04.133Z,17.36
2019-01-25T01:59:13.764Z,17.37
2019-01-25T02:00:22.840Z,17.43
2019-01-25T02:01:31.719Z,17.38
2019-01-25T02:02:40.537Z,17.41
2019-01-25T02:03:49.605Z,17.38
2019-01-25T02:04:58.951Z,17.38
2019-01-25T02:06:08.582Z,17.37
2019-01-25T02:07:17.467Z,17.43
2019-01-25T02:08:26.549Z,17.31
2019-01-25T02:09:35.388Z,17.4
2019-01-25T02:10:44.243Z,17.4
2019-01-25T02:11:53.040Z,17.33
2019-01-25T02:13:02.192Z,17.41
2019-01-25T02:14:11.544Z,17.37
2019-01-25T02:15:20.361Z,17.37
2019-01-25T02:16:29.415Z,17.34
2019-01-25T02:17:38.225Z,17.3
2019-01-25T02:18:47.091Z,17.31
2019-01-25T02:19:55.912Z,17.37
2019-01-25T02:21:04.727Z,17.36
2019-01-25T02:22:13.801Z,17.36
2019-01-25T02:23:22.633Z,17.37
2019-01-25T02:24:32.295Z,17.34
2019-01-25T02:25:41.383Z,17.3
2019-01-25T02:26:50.497Z,17.26
2019-01-25T02:27:59.337Z,17.26
2019-01-25T02:29:08.182Z,17.31
2019-01-25T02:30:17.005Z,17.25
2019-01-25T02:31:26.137Z,17.33
2019-01-25T02:32:35.524Z,17.33
2019-01-25T02:33:44.655Z,17.3
2019-01-25T02:34:53.762Z,17.3
2019-01-25T02:36:02.881Z,17.26
2019-01-25T02:37:11.744Z,17.28
2019-01-25T02:38:21.117Z,17.33
2019-01-25T02:39:29.965Z,17.36
2019-01-25T02:40:43.528Z,17.28
2019-01-25T02:41:52.412Z,17.31
2019-01-25T02:43:01.523Z,17.26
2019-01-25T02:44:10.403Z,17.28
2019-01-25T02:45:19.534Z,17.26
2019-01-25T02:46:28.638Z,17.21
2019-01-25T02:47:37.479Z,17.26
2019-01-25T02:48:46.857Z,17.25
2019-01-25T02:49:56.208Z,17.3
2019-01-25T02:51:05.596Z,17.28
2019-01-25T02:52:15.308Z,17.25
2019-01-25T02:53:24.406Z,17.28
2019-01-25T02:54:33.536Z,17.26
2019-01-25T02:55:42.337Z,17.26
2019-01-25T02:56:51.685Z,17.31
2019-01-25T02:58:00.526Z,17.25
2019-01-25T02:59:09.875Z,17.14
2019-01-25T03:00:18.954Z,17.21
2019-01-25T03:01:27.834Z,17.25
2019-01-25T03:02:36.673Z,17.23
2019-01-25T03:03:45.805Z,17.23
2019-01-25T03:04:54.686Z,17.26
2019-01-25T03:06:03.528Z,17.28
2019-01-25T03:07:12.879Z,17.21
2019-01-25T03:08:22.466Z,17.22
2019-01-25T03:09:31.340Z,17.19
2019-01-25T03:10:46.988Z,17.31
2019-01-25T03:11:56.015Z,17.31
2019-01-25T03:13:04.844Z,17.25
2019-01-25T03:14:13.686Z,17.22
2019-01-25T03:15:23.337Z,17.28
2019-01-25T03:16:32.723Z,17.18
2019-01-25T03:17:41.816Z,17.25
2019-01-25T03:18:50.926Z,17.28
2019-01-25T03:19:59.756Z,17.28
2019-01-25T03:21:09.483Z,17.3
2019-01-25T03:22:18.427Z,17.22
2019-01-25T03:23:27.503Z,17.23
2019-01-25T03:24:36.630Z,17.19
2019-01-25T03:25:45.491Z,17.18
2019-01-25T03:26:54.589Z,17.16
2019-01-25T03:28:03.762Z,17.19
2019-01-25T03:29:12.871Z,17.16
2019-01-25T03:30:21.780Z,17.3
2019-01-25T03:31:31.630Z,17.16
2019-01-25T03:32:42.636Z,17.14
2019-01-25T03:33:51.859Z,17.15
2019-01-25T03:35:00.684Z,17.16
2019-01-25T03:36:09.901Z,17.22
2019-01-25T03:37:18.711Z,17.19
2019-01-25T03:38:27.794Z,17.22
2019-01-25T03:39:36.976Z,17.19
2019-01-25T03:40:46.584Z,17.19
2019-01-25T03:42:02.319Z,17.22
2019-01-25T03:43:11.158Z,17.18
2019-01-25T03:44:20.008Z,17.15
2019-01-25T03:45:29.113Z,17.21
2019-01-25T03:46:38.485Z,17.18
2019-01-25T03:47:47.556Z,17.11
2019-01-25T03:48:56.431Z,17.15
2019-01-25T03:50:05.839Z,17.11
2019-01-25T03:51:14.673Z,17.08
2019-01-25T03:52:23.786Z,17.16
2019-01-25T03:53:32.622Z,17.11
2019-01-25T03:54:41.743Z,17.14
2019-01-25T03:55:50.837Z,17.06
2019-01-25T03:56:59.974Z,17.06
2019-01-25T03:58:09.083Z,17.21
2019-01-25T03:59:18.185Z,17.07
2019-01-25T04:00:27.011Z,17.07
2019-01-25T04:01:36.369Z,17.16
2019-01-25T04:02:45.224Z,17.06
2019-01-25T04:03:54.061Z,17.12
2019-01-25T04:05:03.666Z,17.07
2019-01-25T04:06:12.524Z,17.11
2019-01-25T04:07:21.862Z,17.16
2019-01-25T04:08:31.512Z,17.18
2019-01-25T04:09:40.341Z,17.11
2019-01-25T04:10:50.206Z,17.12
2019-01-25T04:11:59.030Z,17.07
2019-01-25T04:13:07.860Z,17.18
2019-01-25T04:14:16.730Z,17.19
2019-01-25T04:15:25.832Z,17.14
2019-01-25T04:16:34.654Z,17.15
2019-01-25T04:17:44.001Z,17.07
2019-01-25T04:18:53.134Z,17.16
2019-01-25T04:20:02.353Z,17.06
2019-01-25T04:21:11.421Z,17.07
2019-01-25T04:22:20.264Z,17.15
2019-01-25T04:23:29.091Z,17.11
2019-01-25T04:24:38.155Z,17.14
2019-01-25T04:25:47.248Z,17.12
2019-01-25T04:26:56.577Z,17.14
2019-01-25T04:28:05.700Z,17.16
2019-01-25T04:29:15.097Z,17.07
2019-01-25T04:30:24.528Z,17.08
2019-01-25T04:31:33.377Z,17.11
2019-01-25T04:32:42.225Z,17.12
2019-01-25T04:33:51.091Z,17.08
2019-01-25T04:35:00.278Z,17.11
2019-01-25T04:36:09.702Z,17.07
2019-01-25T04:37:18.619Z,17.11
2019-01-25T04:38:27.758Z,17.08
2019-01-25T04:39:37.421Z,17.15
2019-01-25T04:40:46.255Z,17.11
2019-01-25T04:41:55.652Z,17.06
2019-01-25T04:43:05.613Z,17.11
2019-01-25T04:44:14.464Z,17.06
2019-01-25T04:45:23.561Z,17.01
2019-01-25T04:46:32.996Z,17.15
2019-01-25T04:47:42.093Z,17.01
2019-01-25T04:48:51.019Z,17.12
2019-01-25T04:50:00.219Z,17.07
2019-01-25T04:51:09.351Z,16.97
2019-01-25T04:52:18.700Z,17.06
2019-01-25T04:53:27.814Z,17.08
2019-01-25T04:54:36.927Z,17
2019-01-25T04:55:46.044Z,17.07
2019-01-25T04:56:55.172Z,17.07
2019-01-25T04:58:04.288Z,17.06
2019-01-25T04:59:13.678Z,17.06
2019-01-25T05:00:22.573Z,17.06
2019-01-25T05:01:31.456Z,17.04
2019-01-25T05:02:40.577Z,17.07
2019-01-25T05:03:49.394Z,17.04
2019-01-25T05:04:58.212Z,17.03
2019-01-25T05:06:07.404Z,17.07
2019-01-25T05:07:16.485Z,17.07
2019-01-25T05:08:25.588Z,17.04
2019-01-25T05:09:34.414Z,17.04
2019-01-25T05:10:43.260Z,17.06
2019-01-25T05:11:52.897Z,17.07
2019-01-25T05:13:02.045Z,17.08
2019-01-25T05:14:10.873Z,17
2019-01-25T05:15:19.971Z,17.06
2019-01-25T05:16:29.068Z,16.94
2019-01-25T05:17:37.932Z,17.12
2019-01-25T05:18:47.285Z,17.08
2019-01-25T05:19:56.368Z,17.11
2019-01-25T05:21:05.530Z,17.03
2019-01-25T05:22:14.361Z,17.08
2019-01-25T05:23:23.509Z,17.06
2019-01-25T05:24:32.895Z,17.08
2019-01-25T05:25:41.984Z,17.08
2019-01-25T05:26:51.054Z,17.04
2019-01-25T05:27:59.902Z,17.06
2019-01-25T05:29:08.840Z,17.11
2019-01-25T05:30:17.923Z,17.08
2019-01-25T05:31:27.021Z,17.08
2019-01-25T05:32:36.367Z,17.07
2019-01-25T05:33:45.696Z,17.07
2019-01-25T05:34:55.049Z,17.08
2019-01-25T05:36:04.399Z,17.08
2019-01-25T05:37:13.237Z,17
2019-01-25T05:38:22.346Z,17.06
2019-01-25T05:39:31.699Z,17.04
2019-01-25T05:40:40.624Z,17.01
2019-01-25T05:41:49.439Z,17.04
2019-01-25T05:42:58.273Z,17.07
2019-01-25T05:44:07.388Z,17.07
2019-01-25T05:45:16.729Z,17.04
2019-01-25T05:46:25.571Z,17.12
2019-01-25T05:47:34.399Z,17.04
2019-01-25T05:48:43.207Z,17.08
2019-01-25T05:49:52.592Z,17.14
2019-01-25T05:51:01.421Z,17.06
2019-01-25T05:52:10.878Z,17.07
2019-01-25T05:53:20.210Z,17.11
2019-01-25T05:54:29.559Z,17.06
2019-01-25T05:55:38.388Z,17.07
2019-01-25T05:56:47.759Z,17.01
2019-01-25T05:57:57.124Z,17.06
2019-01-25T05:59:06.754Z,17.12
2019-01-25T06:00:15.813Z,17.14
2019-01-25T06:01:26.405Z,17.12
2019-01-25T06:02:35.384Z,17.15
2019-01-25T06:03:44.851Z,17.07
2019-01-25T06:04:54.206Z,17.08
2019-01-25T06:06:03.549Z,17.15
2019-01-25T06:07:12.640Z,17.12
2019-01-25T06:08:21.997Z,17.06
2019-01-25T06:09:30.950Z,17.15
2019-01-25T06:10:40.287Z,17.15
2019-01-25T06:11:49.399Z,17.22
2019-01-25T06:12:58.212Z,17.22
2019-01-25T06:14:07.280Z,17.19
2019-01-25T06:15:16.172Z,17.19
2019-01-25T06:16:25.255Z,17.18
2019-01-25T06:17:34.105Z,17.18
2019-01-25T06:18:43.520Z,17.18
2019-01-25T06:19:52.361Z,17.31
2019-01-25T06:21:01.186Z,17.16
2019-01-25T06:22:10.013Z,17.3
2019-01-25T06:23:19.114Z,17.11
2019-01-25T06:24:28.474Z,17.19
2019-01-25T06:25:37.557Z,17.3
2019-01-25T06:26:46.909Z,17.18
2019-01-25T06:27:56.008Z,17.19
2019-01-25T06:29:05.340Z,17.14
2019-01-25T06:30:14.159Z,17.21
2019-01-25T06:31:23.931Z,17.23
2019-01-25T06:32:33.277Z,17.12
2019-01-25T06:33:42.128Z,17.12
2019-01-25T06:34:50.978Z,17.15
2019-01-25T06:36:00.097Z,17.08
2019-01-25T06:37:08.936Z,17.08
2019-01-25T06:38:17.852Z,17.15
2019-01-25T06:39:26.935Z,17.15
2019-01-25T06:40:36.015Z,17.19
2019-01-25T06:41:48.976Z,17.18
2019-01-25T06:42:57.806Z,17.19
2019-01-25T06:44:06.720Z,17.25
2019-01-25T06:45:15.568Z,17.16
2019-01-25T06:46:24.385Z,17.19
2019-01-25T06:47:33.485Z,17.18
2019-01-25T06:48:42.565Z,17.22
2019-01-25T06:49:51.485Z,17.22
2019-01-25T06:51:00.365Z,17.21
2019-01-25T06:52:10.610Z,17.18
2019-01-25T06:53:19.968Z,17.15
2019-01-25T06:54:29.044Z,17.15
2019-01-25T06:55:38.146Z,17.14
2019-01-25T06:56:47.227Z,17.15
2019-01-25T06:57:56.298Z,17.07
2019-01-25T06:59:05.632Z,17.21
2019-01-25T07:00:14.752Z,17.23
2019-01-25T07:01:23.936Z,17.19
2019-01-25T07:02:33.319Z,17.18
2019-01-25T07:03:42.142Z,17.19
2019-01-25T07:04:51.208Z,17.19
2019-01-25T07:06:00.022Z,17.18
2019-01-25T07:07:09.352Z,17.19
2019-01-25T07:08:18.410Z,17.15
2019-01-25T07:09:27.480Z,17.18
2019-01-25T07:10:36.305Z,17.16
2019-01-25T07:11:53.636Z,17.16
2019-01-25T07:13:03.039Z,17.23
2019-01-25T07:14:12.133Z,17.18
2019-01-25T07:15:21.491Z,17.18
2019-01-25T07:16:30.856Z,17.19
2019-01-25T07:17:39.665Z,17.21
2019-01-25T07:18:48.613Z,17.14
2019-01-25T07:19:57.468Z,17.19
2019-01-25T07:21:06.311Z,17.19
2019-01-25T07:22:15.410Z,17.19
2019-01-25T07:23:24.235Z,17.15
2019-01-25T07:24:33.142Z,17.18
2019-01-25T07:25:42.003Z,17.26
2019-01-25T07:26:51.343Z,17.18
2019-01-25T07:28:00.227Z,17.16
2019-01-25T07:29:09.861Z,17.14
2019-01-25T07:30:18.781Z,17.22
2019-01-25T07:31:27.648Z,17.15
2019-01-25T07:32:37.365Z,17.19
2019-01-25T07:33:46.301Z,17.15
2019-01-25T07:34:55.278Z,17.18
2019-01-25T07:36:04.258Z,17.22
2019-01-25T07:37:13.472Z,17.15
2019-01-25T07:38:22.632Z,17.25
2019-01-25T07:39:32.163Z,17.22
2019-01-25T07:40:41.073Z,17.15
2019-01-25T07:41:50.344Z,17.19
2019-01-25T07:43:07.230Z,17.23
2019-01-25T07:44:16.150Z,17.18
2019-01-25T07:45:25.266Z,17.14
2019-01-25T07:46:34.713Z,17.19
2019-01-25T07:47:43.720Z,17.22
2019-01-25T07:48:52.629Z,17.11
2019-01-25T07:50:01.538Z,17.19
2019-01-25T07:51:10.727Z,17.18
2019-01-25T07:52:19.832Z,17.18
2019-01-25T07:53:28.905Z,17.19
2019-01-25T07:54:38.345Z,17.15
2019-01-25T07:55:47.528Z,17.16
2019-01-25T07:56:56.801Z,17.18
2019-01-25T07:58:06.362Z,17.19
2019-01-25T07:59:15.926Z,17.18
2019-01-25T08:00:25.337Z,17.18
2019-01-25T08:01:34.554Z,17.25
2019-01-25T08:02:44.030Z,17.16
2019-01-25T08:03:52.973Z,17.18
2019-01-25T08:05:02.404Z,17.16
2019-01-25T08:06:11.285Z,17.16
2019-01-25T08:07:20.668Z,17.19
2019-01-25T08:08:29.836Z,17.15
2019-01-25T08:09:39.011Z,17.18
2019-01-25T08:10:48.237Z,17.16
2019-01-25T08:11:57.474Z,17.21
2019-01-25T08:13:14.215Z,17.22
2019-01-25T08:14:23.055Z,17.18
2019-01-25T08:15:32.310Z,17.22
2019-01-25T08:16:41.609Z,17.22
2019-01-25T08:17:50.545Z,17.21
2019-01-25T08:18:59.763Z,17.15
2019-01-25T08:20:08.721Z,17.21
2019-01-25T08:21:18.113Z,17.15
2019-01-25T08:22:27.048Z,17.14
2019-01-25T08:23:36.482Z,17.18
2019-01-25T08:24:45.685Z,17.22
2019-01-25T08:25:54.893Z,17.21
2019-01-25T08:27:04.374Z,17.21
2019-01-25T08:28:13.649Z,17.21
2019-01-25T08:29:30.100Z,17.22
2019-01-25T08:30:40.101Z,17.21
2019-01-25T08:31:50.021Z,17.21
2019-01-25T08:32:58.999Z,17.18
2019-01-25T08:34:08.044Z,17.18
2019-01-25T08:35:17.406Z,17.25
2019-01-25T08:36:26.753Z,17.18
2019-01-25T08:37:35.773Z,17.14
2019-01-25T08:38:44.739Z,17.18
2019-01-25T08:39:53.897Z,17.14
2019-01-25T08:41:03.091Z,17.22
2019-01-25T08:42:19.851Z,17.22
2019-01-25T08:43:29.142Z,17.16
2019-01-25T08:44:38.068Z,17.18
2019-01-25T08:45:46.990Z,17.16
2019-01-25T08:46:56.401Z,17.16
2019-01-25T08:48:05.884Z,17.18
2019-01-25T08:49:15.032Z,17.21
2019-01-25T08:50:24.230Z,17.16
2019-01-25T08:51:33.942Z,17.18
2019-01-25T08:52:43.457Z,17.16
2019-01-25T08:53:52.836Z,17.16
2019-01-25T08:55:02.229Z,17.07
2019-01-25T08:56:11.515Z,16.88
2019-01-25T08:57:20.393Z,16.85
2019-01-25T08:58:29.392Z,16.86
2019-01-25T08:59:41.022Z,17
2019-01-25T09:00:54.426Z,16.96
2019-01-25T09:02:03.254Z,16.93
2019-01-25T09:03:12.437Z,17.03
2019-01-25T09:04:21.277Z,17.06
2019-01-25T09:05:30.354Z,17.03
2019-01-25T09:06:39.437Z,17.04
2019-01-25T09:07:48.535Z,17.12
2019-01-25T09:08:57.738Z,17.11
2019-01-25T09:10:06.555Z,17.03
2019-01-25T09:11:15.673Z,17.08
2019-01-25T09:12:27.926Z,17.12
2019-01-25T09:13:37.297Z,17.07
2019-01-25T09:14:46.490Z,17.16
2019-01-25T09:15:55.577Z,17.11
2019-01-25T09:17:04.666Z,17.12
2019-01-25T09:18:13.493Z,17.06
2019-01-25T09:19:22.297Z,17.06
2019-01-25T09:20:31.177Z,17.04
2019-01-25T09:21:40.823Z,17.14
2019-01-25T09:22:49.915Z,17.16
2019-01-25T09:23:59.259Z,17.19
2019-01-25T09:25:08.614Z,17.04
2019-01-25T09:26:17.748Z,17.11
2019-01-25T09:27:28.506Z,17.11
2019-01-25T09:28:37.325Z,17.12
2019-01-25T09:29:46.145Z,17.08
2019-01-25T09:30:54.962Z,17.06
2019-01-25T09:32:03.858Z,17.15
2019-01-25T09:33:12.674Z,17.18
2019-01-25T09:34:21.487Z,17.15
2019-01-25T09:35:30.563Z,17.18
2019-01-25T09:36:39.623Z,17.15
2019-01-25T09:37:48.491Z,17.18
2019-01-25T09:38:58.087Z,17.18
2019-01-25T09:40:06.896Z,17.14
2019-01-25T09:41:16.253Z,17.11
2019-01-25T09:42:30.948Z,17.11
2019-01-25T09:43:40.046Z,17.18
2019-01-25T09:44:48.857Z,17.12
2019-01-25T09:45:58.184Z,17.06
2019-01-25T09:47:07.788Z,17.08
2019-01-25T09:48:17.127Z,17.11
2019-01-25T09:49:26.048Z,17.12
2019-01-25T09:50:34.866Z,17.19
2019-01-25T09:51:43.709Z,17.12
2019-01-25T09:52:53.064Z,17.14
2019-01-25T09:54:01.887Z,17.07
2019-01-25T09:55:11.054Z,17.11
2019-01-25T09:56:19.866Z,16.96
2019-01-25T09:57:28.698Z,16.97
2019-01-25T09:58:37.810Z,16.94
2019-01-25T09:59:47.031Z,16.98
2019-01-25T10:00:56.191Z,16.88
2019-01-25T10:02:05.282Z,17.04
2019-01-25T10:03:14.382Z,16.96
2019-01-25T10:04:23.473Z,16.97
2019-01-25T10:05:32.820Z,17.08
2019-01-25T10:06:42.248Z,17.08
2019-01-25T10:07:51.596Z,17.07
2019-01-25T10:09:00.674Z,17.11
2019-01-25T10:10:09.478Z,17.03
2019-01-25T10:11:18.816Z,17.12
2019-01-25T10:12:27.994Z,17.14
2019-01-25T10:13:47.886Z,17.07
2019-01-25T10:14:56.692Z,17.11
2019-01-25T10:16:05.529Z,17.08
2019-01-25T10:17:14.606Z,17.16
2019-01-25T10:18:27.147Z,17.12
2019-01-25T10:19:36.241Z,17.11
2019-01-25T10:20:45.358Z,17.08
2019-01-25T10:21:54.432Z,17.12
2019-01-25T10:23:03.252Z,17.11
2019-01-25T10:24:12.402Z,17.14
2019-01-25T10:25:21.497Z,17.14
2019-01-25T10:26:30.587Z,17.11
2019-01-25T10:27:39.414Z,17.07
2019-01-25T10:28:48.806Z,17.12
2019-01-25T10:29:59.234Z,17.14
2019-01-25T10:31:08.328Z,17.08
2019-01-25T10:32:17.242Z,17.11
2019-01-25T10:33:26.357Z,17.12
2019-01-25T10:34:35.702Z,17.14
2019-01-25T10:35:45.033Z,17.14
2019-01-25T10:36:54.397Z,17.14
2019-01-25T10:38:04.762Z,17.11
2019-01-25T10:39:13.958Z,17.11
2019-01-25T10:40:22.789Z,17.07
2019-01-25T10:41:31.603Z,17.12
2019-01-25T10:42:52.923Z,17.07
2019-01-25T10:44:02.759Z,17.14
2019-01-25T10:45:12.369Z,17.11
2019-01-25T10:46:21.178Z,17.07
2019-01-25T10:47:30.358Z,17.08
2019-01-25T10:48:39.205Z,17.08
2019-01-25T10:49:48.013Z,17.14
2019-01-25T10:50:56.840Z,17.14
2019-01-25T10:52:06.180Z,17.11
2019-01-25T10:53:15.952Z,17.12
2019-01-25T10:54:25.044Z,17.11
2019-01-25T10:55:33.929Z,17.12
2019-01-25T10:56:46.386Z,17.08
2019-01-25T10:57:55.490Z,17.12
2019-01-25T10:59:04.400Z,17.12
2019-01-25T11:00:13.721Z,17.14
2019-01-25T11:01:22.822Z,17.14
2019-01-25T11:02:32.175Z,17.07
2019-01-25T11:03:41.289Z,17.06
2019-01-25T11:04:51.659Z,17.06
2019-01-25T11:06:00.502Z,17.07
2019-01-25T11:07:09.584Z,17.18
2019-01-25T11:08:18.439Z,17.11
2019-01-25T11:09:27.275Z,17.15
2019-01-25T11:10:36.453Z,17.14
2019-01-25T11:11:45.552Z,17.11
2019-01-25T11:13:00.672Z,17.15
2019-01-25T11:14:09.879Z,17.07
2019-01-25T11:15:18.962Z,17.15
2019-01-25T11:16:28.150Z,17.11
2019-01-25T11:17:40.944Z,17.08
2019-01-25T11:18:50.076Z,17.15
2019-01-25T11:19:59.433Z,17.04
2019-01-25T11:21:08.520Z,17.14
2019-01-25T11:22:18.574Z,17.12
2019-01-25T11:23:27.379Z,17.08
2019-01-25T11:24:36.463Z,17.08
2019-01-25T11:25:45.294Z,17.08
2019-01-25T11:26:54.122Z,17.07
2019-01-25T11:28:07.183Z,17.07
2019-01-25T11:29:16.601Z,17.14
2019-01-25T11:30:25.662Z,17.18
2019-01-25T11:31:34.464Z,17.11
2019-01-25T11:32:43.295Z,17.16
2019-01-25T11:33:52.250Z,17.14
2019-01-25T11:35:01.598Z,17.08
2019-01-25T11:36:10.427Z,17.07
2019-01-25T11:37:19.239Z,17.07
2019-01-25T11:38:28.592Z,17.08
2019-01-25T11:39:37.663Z,17.08
2019-01-25T11:40:47.057Z,17.07
2019-01-25T11:41:55.911Z,17.11
2019-01-25T11:43:11.379Z,17.15
2019-01-25T11:44:20.220Z,17.11
2019-01-25T11:45:29.396Z,17.15
2019-01-25T11:46:38.748Z,17.12
2019-01-25T11:47:47.824Z,17.11
2019-01-25T11:48:56.983Z,17.01
2019-01-25T11:50:05.808Z,17.14
2019-01-25T11:51:14.897Z,17.14
2019-01-25T11:52:29.394Z,17.23
2019-01-25T11:53:38.238Z,17.01
2019-01-25T11:54:47.065Z,17.07
2019-01-25T11:55:57.157Z,17.14
2019-01-25T11:57:05.980Z,17.03
2019-01-25T11:58:15.093Z,17.04
2019-01-25T11:59:23.894Z,17.08
2019-01-25T12:00:32.976Z,17.11
2019-01-25T12:01:42.331Z,17.06
2019-01-25T12:02:51.271Z,17.11
2019-01-25T12:04:00.364Z,17.06
2019-01-25T12:05:09.180Z,17.04
2019-01-25T12:06:18.024Z,17.07
2019-01-25T12:07:26.838Z,17.08
2019-01-25T12:08:36.044Z,17.11
2019-01-25T12:09:45.115Z,17.07
2019-01-25T12:10:54.207Z,17.19
2019-01-25T12:12:03.306Z,17.04
2019-01-25T12:13:18.610Z,17.04
2019-01-25T12:14:27.993Z,17.12
2019-01-25T12:15:36.836Z,17.11
2019-01-25T12:16:46.242Z,17.18
2019-01-25T12:17:55.319Z,17.19
2019-01-25T12:19:04.386Z,17.11
2019-01-25T12:20:13.773Z,17.06
2019-01-25T12:21:23.016Z,17.11
2019-01-25T12:22:32.012Z,17.06
2019-01-25T12:23:41.288Z,17.14
2019-01-25T12:24:50.354Z,17.12
2019-01-25T12:25:59.433Z,17.21
2019-01-25T12:27:08.766Z,17.15
2019-01-25T12:28:17.590Z,17.07
2019-01-25T12:29:26.658Z,17.14
2019-01-25T12:30:40.264Z,17.11
2019-01-25T12:31:49.172Z,17.18
2019-01-25T12:32:58.510Z,17.14
2019-01-25T12:34:08.116Z,17.07
2019-01-25T12:35:16.951Z,17.22
2019-01-25T12:36:26.324Z,17.16
2019-01-25T12:37:36.721Z,17.11
2019-01-25T12:38:45.780Z,17.18
2019-01-25T12:39:54.853Z,17.15
2019-01-25T12:41:04.222Z,17.14
2019-01-25T12:42:13.034Z,17.18
2019-01-25T12:43:28.760Z,17.11
2019-01-25T12:44:37.822Z,17.18
2019-01-25T12:45:50.156Z,17.16
2019-01-25T12:46:59.680Z,17.18
2019-01-25T12:48:08.509Z,17.16
2019-01-25T12:49:17.667Z,17.16
2019-01-25T12:50:26.483Z,17.19
2019-01-25T12:51:35.358Z,17.16
2019-01-25T12:52:45.067Z,17.14
2019-01-25T12:53:54.219Z,17.19
2019-01-25T12:55:03.358Z,17.16
2019-01-25T12:56:12.251Z,17.21
2019-01-25T12:57:21.998Z,17.14
2019-01-25T12:58:31.020Z,17.19
2019-01-25T12:59:39.845Z,17.16
2019-01-25T13:00:48.655Z,17.14
2019-01-25T13:01:57.549Z,17.12
2019-01-25T13:03:06.646Z,17.28
2019-01-25T13:04:15.763Z,17.21
2019-01-25T13:05:24.836Z,17.21
2019-01-25T13:06:33.947Z,17.16
2019-01-25T13:07:42.799Z,17.18
2019-01-25T13:08:51.805Z,17.21
2019-01-25T13:10:00.646Z,17.3
2019-01-25T13:11:09.486Z,17.15
2019-01-25T13:12:18.407Z,17.26
2019-01-25T13:13:36.199Z,17.19
2019-01-25T13:14:45.912Z,17.16
2019-01-25T13:15:54.752Z,17.31
2019-01-25T13:17:04.151Z,17.16
2019-01-25T13:18:13.335Z,17.19
2019-01-25T13:19:22.591Z,17.3
2019-01-25T13:20:31.809Z,17.18
2019-01-25T13:21:46.862Z,17.18
2019-01-25T13:22:55.787Z,17.21
2019-01-25T13:24:05.067Z,17.19
2019-01-25T13:25:14.493Z,17.26
2019-01-25T13:26:23.500Z,17.18
2019-01-25T13:27:32.689Z,17.26
2019-01-25T13:28:46.188Z,17.21
2019-01-25T13:29:55.312Z,17.28
2019-01-25T13:31:04.514Z,17.26
2019-01-25T13:32:16.827Z,17.18
2019-01-25T13:33:26.293Z,17.18
2019-01-25T13:34:35.233Z,17.07
2019-01-25T13:35:44.551Z,17.03
2019-01-25T13:37:01.204Z,16.98
2019-01-25T13:38:10.357Z,16.98
2019-01-25T13:39:19.175Z,17.11
2019-01-25T13:40:27.986Z,17.12
2019-01-25T13:41:36.810Z,17.12
2019-01-25T13:42:45.652Z,17.07
2019-01-25T13:43:54.481Z,17.19
2019-01-25T13:45:03.565Z,17.14
2019-01-25T13:46:12.644Z,17.18
2019-01-25T13:47:21.816Z,17.18
2019-01-25T13:48:30.631Z,17.14
2019-01-25T13:49:39.727Z,17.22
2019-01-25T13:50:48.812Z,17.19
2019-01-25T13:51:58.282Z,17.21
2019-01-25T13:53:07.210Z,17.15
2019-01-25T13:54:16.277Z,17.18
2019-01-25T13:55:25.089Z,17.21
2019-01-25T13:56:34.190Z,17.18
2019-01-25T13:57:43.010Z,17.15
2019-01-25T13:58:51.819Z,17.21
2019-01-25T14:00:01.671Z,17.15
2019-01-25T14:01:11.027Z,17.21
2019-01-25T14:02:20.381Z,17.19
2019-01-25T14:03:29.444Z,17.11
2019-01-25T14:04:38.802Z,17.15
2019-01-25T14:05:47.620Z,17.21
2019-01-25T14:06:56.470Z,17.16
2019-01-25T14:08:05.586Z,17.16
2019-01-25T14:09:14.396Z,17.22
2019-01-25T14:10:24.008Z,17.22
2019-01-25T14:11:32.830Z,17.21
2019-01-25T14:12:41.662Z,17.21
2019-01-25T14:13:51.374Z,17.3
2019-01-25T14:15:00.463Z,17.22
2019-01-25T14:16:09.597Z,17.25
2019-01-25T14:17:18.399Z,17.3
2019-01-25T14:18:27.491Z,17.31
2019-01-25T14:19:36.568Z,17.36
2019-01-25T14:20:45.398Z,17.37
2019-01-25T14:21:54.408Z,17.37
2019-01-25T14:23:03.234Z,17.37
2019-01-25T14:24:16.542Z,17.37
2019-01-25T14:25:25.572Z,17.3
2019-01-25T14:26:34.654Z,17.41
2019-01-25T14:27:43.552Z,17.36
2019-01-25T14:28:52.356Z,17.36
2019-01-25T14:30:01.170Z,17.37
2019-01-25T14:31:09.970Z,17.38
2019-01-25T14:32:19.073Z,17.33
2019-01-25T14:33:28.157Z,17.33
2019-01-25T14:34:37.224Z,17.34
2019-01-25T14:35:46.320Z,17.34
2019-01-25T14:36:55.682Z,17.34
2019-01-25T14:38:04.507Z,17.34
2019-01-25T14:39:13.356Z,17.37
2019-01-25T14:40:23.330Z,17.37
2019-01-25T14:41:32.420Z,17.38
2019-01-25T14:42:42.035Z,17.38
2019-01-25T14:43:56.821Z,17.34
2019-01-25T14:45:05.695Z,17.31
2019-01-25T14:46:14.524Z,17.33
2019-01-25T14:47:23.374Z,17.31
2019-01-25T14:48:32.234Z,17.37
2019-01-25T14:49:45.193Z,17.31
2019-01-25T14:50:54.641Z,17.4
2019-01-25T14:52:03.731Z,17.38
2019-01-25T14:53:12.815Z,17.38
2019-01-25T14:54:21.907Z,17.34